sensor_id;sensor_type;location;lat;lon;timestamp;temperature;humidity
32147;DHT22;32190;49.112;8.598;2022-07-06T00:04:23;27.80;33.30
32147;DHT22;32190;49.112;8.598;2022-07-06T00:10:14;27.80;33.50
32147;DHT22;32190;49.112;8.598;2022-07-06T00:16:05;27.70;33.60
32147;DHT22;32190;49.112;8.598;2022-07-06T00:22:08;27.60;33.80
32147;DHT22;32190;49.112;8.598;2022-07-06T00:27:59;27.50;34.00
32147;DHT22;32190;49.112;8.598;2022-07-06T00:33:50;27.30;34.10
32147;DHT22;32190;49.112;8.598;2022-07-06T00:39:40;27.20;34.20
32147;DHT22;32190;49.112;8.598;2022-07-06T00:45:31;27.20;34.40
32147;DHT22;32190;49.112;8.598;2022-07-06T00:51:25;27.20;34.40
32147;DHT22;32190;49.112;8.598;2022-07-06T00:57:17;27.10;34.30
32147;DHT22;32190;49.112;8.598;2022-07-06T01:03:08;27.00;34.50
32147;DHT22;32190;49.112;8.598;2022-07-06T01:08:59;27.00;34.70
32147;DHT22;32190;49.112;8.598;2022-07-06T01:14:50;27.00;34.80
32147;DHT22;32190;49.112;8.598;2022-07-06T01:20:41;27.00;34.80
32147;DHT22;32190;49.112;8.598;2022-07-06T01:26:31;27.00;35.00
32147;DHT22;32190;49.112;8.598;2022-07-06T01:32:22;26.90;35.00
32147;DHT22;32190;49.112;8.598;2022-07-06T01:38:13;26.80;35.20
32147;DHT22;32190;49.112;8.598;2022-07-06T01:44:04;26.70;35.20
32147;DHT22;32190;49.112;8.598;2022-07-06T01:49:58;26.60;35.20
32147;DHT22;32190;49.112;8.598;2022-07-06T01:55:49;26.60;35.60
32147;DHT22;32190;49.112;8.598;2022-07-06T02:01:40;26.50;35.40
32147;DHT22;32190;49.112;8.598;2022-07-06T02:07:30;26.50;35.60
32147;DHT22;32190;49.112;8.598;2022-07-06T02:13:21;26.40;35.70
32147;DHT22;32190;49.112;8.598;2022-07-06T02:19:12;26.40;35.90
32147;DHT22;32190;49.112;8.598;2022-07-06T02:25:03;26.30;35.90
32147;DHT22;32190;49.112;8.598;2022-07-06T02:30:53;26.20;36.00
32147;DHT22;32190;49.112;8.598;2022-07-06T02:36:44;26.20;36.20
32147;DHT22;32190;49.112;8.598;2022-07-06T02:42:50;26.10;36.30
32147;DHT22;32190;49.112;8.598;2022-07-06T02:48:41;26.00;36.30
32147;DHT22;32190;49.112;8.598;2022-07-06T02:54:31;25.90;36.50
32147;DHT22;32190;49.112;8.598;2022-07-06T03:00:22;25.80;36.50
32147;DHT22;32190;49.112;8.598;2022-07-06T03:06:12;25.80;36.60
32147;DHT22;32190;49.112;8.598;2022-07-06T03:12:03;25.70;36.60
32147;DHT22;32190;49.112;8.598;2022-07-06T03:17:54;25.70;36.80
32147;DHT22;32190;49.112;8.598;2022-07-06T03:23:44;25.70;36.80
32147;DHT22;32190;49.112;8.598;2022-07-06T03:29:35;25.60;36.90
32147;DHT22;32190;49.112;8.598;2022-07-06T03:35:25;25.60;37.10
32147;DHT22;32190;49.112;8.598;2022-07-06T03:41:16;25.50;37.30
32147;DHT22;32190;49.112;8.598;2022-07-06T03:47:07;25.30;37.20
32147;DHT22;32190;49.112;8.598;2022-07-06T03:52:57;25.20;37.40
32147;DHT22;32190;49.112;8.598;2022-07-06T03:58:48;25.10;37.50
32147;DHT22;32190;49.112;8.598;2022-07-06T04:04:38;25.10;37.60
32147;DHT22;32190;49.112;8.598;2022-07-06T04:10:29;25.00;37.70
32147;DHT22;32190;49.112;8.598;2022-07-06T04:16:20;24.90;38.00
32147;DHT22;32190;49.112;8.598;2022-07-06T04:22:10;24.90;38.00
32147;DHT22;32190;49.112;8.598;2022-07-06T04:28:01;24.90;38.10
32147;DHT22;32190;49.112;8.598;2022-07-06T04:33:51;24.90;38.30
32147;DHT22;32190;49.112;8.598;2022-07-06T04:39:42;24.80;38.20
32147;DHT22;32190;49.112;8.598;2022-07-06T04:45:32;24.70;38.20
32147;DHT22;32190;49.112;8.598;2022-07-06T04:51:23;24.70;38.30
32147;DHT22;32190;49.112;8.598;2022-07-06T04:57:14;24.50;38.40
32147;DHT22;32190;49.112;8.598;2022-07-06T05:03:04;24.40;38.60
32147;DHT22;32190;49.112;8.598;2022-07-06T05:08:55;24.30;38.90
32147;DHT22;32190;49.112;8.598;2022-07-06T05:14:45;24.30;39.20
32147;DHT22;32190;49.112;8.598;2022-07-06T05:20:59;24.50;39.30
32147;DHT22;32190;49.112;8.598;2022-07-06T05:26:55;24.70;39.60
32147;DHT22;32190;49.112;8.598;2022-07-06T05:32:46;24.80;39.00
32147;DHT22;32190;49.112;8.598;2022-07-06T05:38:37;24.90;38.90
32147;DHT22;32190;49.112;8.598;2022-07-06T05:44:27;25.00;38.90
32147;DHT22;32190;49.112;8.598;2022-07-06T05:50:18;25.10;38.60
32147;DHT22;32190;49.112;8.598;2022-07-06T05:56:09;25.20;38.60
32147;DHT22;32190;49.112;8.598;2022-07-06T06:01:59;25.30;38.60
32147;DHT22;32190;49.112;8.598;2022-07-06T06:07:50;25.60;38.60
32147;DHT22;32190;49.112;8.598;2022-07-06T06:13:42;26.30;38.90
32147;DHT22;32190;49.112;8.598;2022-07-06T06:19:33;27.30;38.40
32147;DHT22;32190;49.112;8.598;2022-07-06T06:25:32;27.60;37.30
32147;DHT22;32190;49.112;8.598;2022-07-06T06:31:22;27.40;36.60
32147;DHT22;32190;49.112;8.598;2022-07-06T06:37:13;27.30;36.90
32147;DHT22;32190;49.112;8.598;2022-07-06T06:43:04;27.30;36.90
32147;DHT22;32190;49.112;8.598;2022-07-06T06:48:54;27.70;36.90
32147;DHT22;32190;49.112;8.598;2022-07-06T06:54:45;28.30;36.80
32147;DHT22;32190;49.112;8.598;2022-07-06T07:00:36;29.00;36.30
32147;DHT22;32190;49.112;8.598;2022-07-06T07:06:26;29.40;35.50
32147;DHT22;32190;49.112;8.598;2022-07-06T07:12:17;29.40;35.30
32147;DHT22;32190;49.112;8.598;2022-07-06T07:18:08;29.30;35.30
32147;DHT22;32190;49.112;8.598;2022-07-06T07:23:58;29.10;35.30
32147;DHT22;32190;49.112;8.598;2022-07-06T07:29:49;28.70;35.20
32147;DHT22;32190;49.112;8.598;2022-07-06T07:35:39;28.50;35.30
32147;DHT22;32190;49.112;8.598;2022-07-06T07:41:30;28.10;35.50
32147;DHT22;32190;49.112;8.598;2022-07-06T07:47:21;27.70;36.20
32147;DHT22;32190;49.112;8.598;2022-07-06T07:53:12;27.20;35.90
32147;DHT22;32190;49.112;8.598;2022-07-06T07:59:02;26.90;36.40
32147;DHT22;32190;49.112;8.598;2022-07-06T08:04:53;26.70;36.60
32147;DHT22;32190;49.112;8.598;2022-07-06T08:10:43;26.60;36.70
32147;DHT22;32190;49.112;8.598;2022-07-06T08:16:35;26.40;36.90
32147;DHT22;32190;49.112;8.598;2022-07-06T08:22:25;26.30;36.90
32147;DHT22;32190;49.112;8.598;2022-07-06T08:28:17;26.20;36.80
32147;DHT22;32190;49.112;8.598;2022-07-06T08:34:08;26.20;37.10
32147;DHT22;32190;49.112;8.598;2022-07-06T08:39:58;26.10;37.20
32147;DHT22;32190;49.112;8.598;2022-07-06T08:45:50;26.00;37.30
32147;DHT22;32190;49.112;8.598;2022-07-06T08:51:45;25.90;37.20
32147;DHT22;32190;49.112;8.598;2022-07-06T08:57:35;25.70;37.40
32147;DHT22;32190;49.112;8.598;2022-07-06T09:03:27;25.60;37.50
32147;DHT22;32190;49.112;8.598;2022-07-06T09:09:23;25.60;37.60
32147;DHT22;32190;49.112;8.598;2022-07-06T09:15:14;25.60;37.80
32147;DHT22;32190;49.112;8.598;2022-07-06T09:21:08;25.50;37.90
32147;DHT22;32190;49.112;8.598;2022-07-06T09:26:59;25.50;37.80
32147;DHT22;32190;49.112;8.598;2022-07-06T09:32:52;25.50;37.90
32147;DHT22;32190;49.112;8.598;2022-07-06T09:38:43;25.50;38.00
32147;DHT22;32190;49.112;8.598;2022-07-06T09:44:36;25.50;38.30
32147;DHT22;32190;49.112;8.598;2022-07-06T09:50:27;25.50;38.10
32147;DHT22;32190;49.112;8.598;2022-07-06T09:56:18;25.60;38.00
32147;DHT22;32190;49.112;8.598;2022-07-06T10:02:08;25.60;38.20
32147;DHT22;32190;49.112;8.598;2022-07-06T10:08:00;25.80;38.00
32147;DHT22;32190;49.112;8.598;2022-07-06T10:13:55;25.80;37.60
32147;DHT22;32190;49.112;8.598;2022-07-06T10:20:14;25.70;37.00
32147;DHT22;32190;49.112;8.598;2022-07-06T10:26:06;25.80;37.00
32147;DHT22;32190;49.112;8.598;2022-07-06T10:31:59;25.70;36.90
32147;DHT22;32190;49.112;8.598;2022-07-06T10:38:07;25.70;37.00
32147;DHT22;32190;49.112;8.598;2022-07-06T10:43:58;25.70;37.20
32147;DHT22;32190;49.112;8.598;2022-07-06T10:50:04;25.80;37.10
32147;DHT22;32190;49.112;8.598;2022-07-06T10:55:56;25.90;37.00
32147;DHT22;32190;49.112;8.598;2022-07-06T11:02:13;26.20;37.40
32147;DHT22;32190;49.112;8.598;2022-07-06T11:08:04;26.30;37.40
32147;DHT22;32190;49.112;8.598;2022-07-06T11:14:04;26.60;37.10
32147;DHT22;32190;49.112;8.598;2022-07-06T11:19:57;26.70;36.50
32147;DHT22;32190;49.112;8.598;2022-07-06T11:25:48;26.90;36.40
32147;DHT22;32190;49.112;8.598;2022-07-06T11:31:41;26.90;36.50
32147;DHT22;32190;49.112;8.598;2022-07-06T11:37:32;27.00;36.30
32147;DHT22;32190;49.112;8.598;2022-07-06T11:43:23;27.20;35.90
32147;DHT22;32190;49.112;8.598;2022-07-06T11:49:14;27.30;35.80
32147;DHT22;32190;49.112;8.598;2022-07-06T11:55:06;27.30;35.90
32147;DHT22;32190;49.112;8.598;2022-07-06T12:01:06;27.50;35.70
32147;DHT22;32190;49.112;8.598;2022-07-06T12:07:09;27.60;35.00
32147;DHT22;32190;49.112;8.598;2022-07-06T12:13:04;27.60;35.40
32147;DHT22;32190;49.112;8.598;2022-07-06T12:18:55;27.60;35.20
32147;DHT22;32190;49.112;8.598;2022-07-06T12:24:45;27.70;35.30
32147;DHT22;32190;49.112;8.598;2022-07-06T12:30:45;27.80;34.90
32147;DHT22;32190;49.112;8.598;2022-07-06T12:37:11;27.80;34.10
32147;DHT22;32190;49.112;8.598;2022-07-06T12:43:03;27.80;34.90
32147;DHT22;32190;49.112;8.598;2022-07-06T12:48:54;28.00;34.80
32147;DHT22;32190;49.112;8.598;2022-07-06T12:54:47;28.10;34.40
32147;DHT22;32190;49.112;8.598;2022-07-06T13:00:45;28.00;34.20
32147;DHT22;32190;49.112;8.598;2022-07-06T13:06:36;28.00;34.00
32147;DHT22;32190;49.112;8.598;2022-07-06T13:12:27;28.00;34.40
32147;DHT22;32190;49.112;8.598;2022-07-06T13:18:18;28.00;34.20
32147;DHT22;32190;49.112;8.598;2022-07-06T13:24:09;28.10;34.20
32147;DHT22;32190;49.112;8.598;2022-07-06T13:30:00;28.10;34.20
32147;DHT22;32190;49.112;8.598;2022-07-06T13:35:50;28.20;34.50
32147;DHT22;32190;49.112;8.598;2022-07-06T13:41:41;28.50;34.00
32147;DHT22;32190;49.112;8.598;2022-07-06T13:47:32;28.60;33.60
32147;DHT22;32190;49.112;8.598;2022-07-06T13:53:22;28.80;33.30
32147;DHT22;32190;49.112;8.598;2022-07-06T13:59:13;28.90;32.60
32147;DHT22;32190;49.112;8.598;2022-07-06T14:05:03;28.90;32.80
32147;DHT22;32190;49.112;8.598;2022-07-06T14:10:54;28.90;32.20
32147;DHT22;32190;49.112;8.598;2022-07-06T14:16:45;29.00;32.50
32147;DHT22;32190;49.112;8.598;2022-07-06T14:22:36;29.00;31.90
32147;DHT22;32190;49.112;8.598;2022-07-06T14:28:26;29.00;32.00
32147;DHT22;32190;49.112;8.598;2022-07-06T14:34:17;29.10;31.80
32147;DHT22;32190;49.112;8.598;2022-07-06T14:40:08;29.10;31.80
32147;DHT22;32190;49.112;8.598;2022-07-06T14:45:59;29.30;32.00
32147;DHT22;32190;49.112;8.598;2022-07-06T14:51:49;29.50;31.20
32147;DHT22;32190;49.112;8.598;2022-07-06T14:57:40;29.70;30.40
32147;DHT22;32190;49.112;8.598;2022-07-06T15:03:30;29.70;30.10
32147;DHT22;32190;49.112;8.598;2022-07-06T15:09:22;29.60;30.00
32147;DHT22;32190;49.112;8.598;2022-07-06T15:15:12;29.60;30.10
32147;DHT22;32190;49.112;8.598;2022-07-06T15:21:03;29.50;30.00
32147;DHT22;32190;49.112;8.598;2022-07-06T15:26:54;29.50;30.10
32147;DHT22;32190;49.112;8.598;2022-07-06T15:32:45;29.60;30.60
32147;DHT22;32190;49.112;8.598;2022-07-06T15:38:36;29.70;29.70
32147;DHT22;32190;49.112;8.598;2022-07-06T15:44:26;29.60;29.70
32147;DHT22;32190;49.112;8.598;2022-07-06T15:50:20;29.60;29.60
32147;DHT22;32190;49.112;8.598;2022-07-06T16:02:43;29.50;29.50
32147;DHT22;32190;49.112;8.598;2022-07-06T16:09:00;29.50;29.30
32147;DHT22;32190;49.112;8.598;2022-07-06T16:14:54;29.40;29.00
32147;DHT22;32190;49.112;8.598;2022-07-06T16:20:44;29.20;28.20
32147;DHT22;32190;49.112;8.598;2022-07-06T16:26:35;29.00;28.70
32147;DHT22;32190;49.112;8.598;2022-07-06T16:32:26;28.70;29.10
32147;DHT22;32190;49.112;8.598;2022-07-06T16:38:21;28.70;29.20
32147;DHT22;32190;49.112;8.598;2022-07-06T16:44:12;28.80;29.10
32147;DHT22;32190;49.112;8.598;2022-07-06T16:50:25;28.80;29.50
32147;DHT22;32190;49.112;8.598;2022-07-06T16:56:16;28.80;29.00
32147;DHT22;32190;49.112;8.598;2022-07-06T17:02:14;28.80;28.90
32147;DHT22;32190;49.112;8.598;2022-07-06T17:08:14;28.80;29.20
32147;DHT22;32190;49.112;8.598;2022-07-06T17:14:05;28.70;30.10
32147;DHT22;32190;49.112;8.598;2022-07-06T17:19:55;28.70;29.40
32147;DHT22;32190;49.112;8.598;2022-07-06T17:25:46;28.70;29.30
32147;DHT22;32190;49.112;8.598;2022-07-06T17:31:37;28.60;29.50
32147;DHT22;32190;49.112;8.598;2022-07-06T17:37:27;28.40;29.70
32147;DHT22;32190;49.112;8.598;2022-07-06T17:43:18;28.30;29.80
32147;DHT22;32190;49.112;8.598;2022-07-06T17:49:09;28.20;30.00
32147;DHT22;32190;49.112;8.598;2022-07-06T17:55:05;28.20;29.90
32147;DHT22;32190;49.112;8.598;2022-07-06T18:00:56;28.20;29.80
32147;DHT22;32190;49.112;8.598;2022-07-06T18:06:46;28.10;29.90
32147;DHT22;32190;49.112;8.598;2022-07-06T18:12:37;28.00;29.90
32147;DHT22;32190;49.112;8.598;2022-07-06T18:18:30;27.80;29.70
32147;DHT22;32190;49.112;8.598;2022-07-06T18:24:21;27.70;29.90
32147;DHT22;32190;49.112;8.598;2022-07-06T18:30:11;27.60;30.00
32147;DHT22;32190;49.112;8.598;2022-07-06T18:36:02;27.50;30.20
32147;DHT22;32190;49.112;8.598;2022-07-06T18:41:53;27.50;30.50
32147;DHT22;32190;49.112;8.598;2022-07-06T18:47:44;27.50;29.80
32147;DHT22;32190;49.112;8.598;2022-07-06T18:53:35;27.30;30.00
32147;DHT22;32190;49.112;8.598;2022-07-06T18:59:25;27.30;30.10
32147;DHT22;32190;49.112;8.598;2022-07-06T19:05:16;27.20;30.10
32147;DHT22;32190;49.112;8.598;2022-07-06T19:11:07;27.20;30.20
32147;DHT22;32190;49.112;8.598;2022-07-06T19:16:57;27.20;30.10
32147;DHT22;32190;49.112;8.598;2022-07-06T19:22:48;27.20;30.20
32147;DHT22;32190;49.112;8.598;2022-07-06T19:28:39;27.00;30.50
32147;DHT22;32190;49.112;8.598;2022-07-06T19:34:32;26.90;30.40
32147;DHT22;32190;49.112;8.598;2022-07-06T19:40:23;26.90;30.70
32147;DHT22;32190;49.112;8.598;2022-07-06T19:46:14;26.80;30.60
32147;DHT22;32190;49.112;8.598;2022-07-06T19:52:05;26.80;30.50
32147;DHT22;32190;49.112;8.598;2022-07-06T19:57:55;26.80;30.40
32147;DHT22;32190;49.112;8.598;2022-07-06T20:03:47;26.80;30.80
32147;DHT22;32190;49.112;8.598;2022-07-06T20:09:37;26.80;31.20
32147;DHT22;32190;49.112;8.598;2022-07-06T20:15:28;26.90;31.50
32147;DHT22;32190;49.112;8.598;2022-07-06T20:21:18;27.00;31.60
32147;DHT22;32190;49.112;8.598;2022-07-06T20:27:09;27.10;31.50
32147;DHT22;32190;49.112;8.598;2022-07-06T20:33:01;27.00;31.60
32147;DHT22;32190;49.112;8.598;2022-07-06T20:38:52;27.00;31.80
32147;DHT22;32190;49.112;8.598;2022-07-06T20:44:43;27.00;31.90
32147;DHT22;32190;49.112;8.598;2022-07-06T20:50:34;26.90;32.00
32147;DHT22;32190;49.112;8.598;2022-07-06T20:56:25;26.80;32.10
32147;DHT22;32190;49.112;8.598;2022-07-06T21:02:16;26.70;32.30
32147;DHT22;32190;49.112;8.598;2022-07-06T21:08:06;26.60;32.20
32147;DHT22;32190;49.112;8.598;2022-07-06T21:13:57;26.40;32.50
32147;DHT22;32190;49.112;8.598;2022-07-06T21:19:47;26.30;32.80
32147;DHT22;32190;49.112;8.598;2022-07-06T21:25:38;26.20;32.90
32147;DHT22;32190;49.112;8.598;2022-07-06T21:31:29;26.20;33.00
32147;DHT22;32190;49.112;8.598;2022-07-06T21:37:19;26.10;33.10
32147;DHT22;32190;49.112;8.598;2022-07-06T21:43:11;26.10;33.10
32147;DHT22;32190;49.112;8.598;2022-07-06T21:49:01;26.10;33.20
32147;DHT22;32190;49.112;8.598;2022-07-06T21:54:52;26.00;33.30
32147;DHT22;32190;49.112;8.598;2022-07-06T22:00:42;25.90;33.40
32147;DHT22;32190;49.112;8.598;2022-07-06T22:06:33;25.80;33.40
32147;DHT22;32190;49.112;8.598;2022-07-06T22:12:23;25.70;33.50
32147;DHT22;32190;49.112;8.598;2022-07-06T22:18:14;25.60;33.70
32147;DHT22;32190;49.112;8.598;2022-07-06T22:24:05;25.50;33.90
32147;DHT22;32190;49.112;8.598;2022-07-06T22:29:55;25.40;34.00
32147;DHT22;32190;49.112;8.598;2022-07-06T22:35:46;25.30;34.00
32147;DHT22;32190;49.112;8.598;2022-07-06T22:41:36;25.20;34.20
32147;DHT22;32190;49.112;8.598;2022-07-06T22:47:27;25.00;34.30
32147;DHT22;32190;49.112;8.598;2022-07-06T22:53:18;24.90;34.40
32147;DHT22;32190;49.112;8.598;2022-07-06T22:59:08;24.70;34.70
32147;DHT22;32190;49.112;8.598;2022-07-06T23:04:59;24.60;34.70
32147;DHT22;32190;49.112;8.598;2022-07-06T23:10:49;24.50;34.70
32147;DHT22;32190;49.112;8.598;2022-07-06T23:16:40;24.30;35.10
32147;DHT22;32190;49.112;8.598;2022-07-06T23:22:30;24.30;35.40
32147;DHT22;32190;49.112;8.598;2022-07-06T23:28:21;24.40;35.50
32147;DHT22;32190;49.112;8.598;2022-07-06T23:34:12;24.50;35.50
32147;DHT22;32190;49.112;8.598;2022-07-06T23:40:02;24.60;35.40
32147;DHT22;32190;49.112;8.598;2022-07-06T23:45:53;24.60;35.30
32147;DHT22;32190;49.112;8.598;2022-07-06T23:51:44;24.60;35.30
32147;DHT22;32190;49.112;8.598;2022-07-06T23:57:34;24.50;35.40
